Time;durP1;ratioP1;P1;durP2;ratioP2;P2;SDS_P1;SDS_P2;PMS_P1;PMS_P2;Temp;Humidity;BMP_temperature;BMP_pressure;BME280_temperature;BME280_humidity;BME280_pressure;Samples;Min_cycle;Max_cycle;Signal;HPM_P1;HPM_P2
2022/03/16 00:00:00;;;;;;;;;;;;;;;15.57;63.37;102130.56;1012354;29;650;-76
2022/03/16 00:00:50;;;;;;;;;;;;;;;15.56;63.20;102138.72;1008977;29;666;-76
2022/03/16 00:01:41;;;;;;;;;;;;;;;15.57;63.13;102135.94;1008727;29;678;-76
2022/03/16 00:02:31;;;;;;;;;;;;;;;15.56;63.12;102134.19;1012386;29;683;-75
2022/03/16 00:03:22;;;;;;;;;;;;;;;15.56;62.96;102142.25;1012436;29;630;-76
2022/03/16 00:04:12;;;;;;;;;;;;;;;15.56;62.69;102144.94;1008890;29;709;-76
2022/03/16 00:05:02;;;;;;;;;;;;;;;15.55;63.19;102145.91;1009971;29;666;-75
2022/03/16 00:05:54;;;;;;;;;;;;;;;15.55;62.99;102140.53;1008794;29;699;-75
2022/03/16 00:06:44;;;;;;;;;;;;;;;15.54;62.55;102144.16;1008050;29;1280;-75
2022/03/16 00:07:34;;;;;;;;;;;;;;;15.54;62.79;102152.22;1009538;29;647;-75
2022/03/16 00:08:28;;;;;;;;;;;;;;;15.54;62.53;102144.16;1012739;29;1431;-75
2022/03/16 00:09:19;;;;;;;;;;;;;;;15.53;63.07;102145.13;1012916;29;701;-74
2022/03/16 00:10:09;;;;;;;;;;;;;;;15.55;62.81;102147.69;1012892;29;632;-75
2022/03/16 00:11:00;;;;;;;;;;;;;;;15.55;62.78;102150.38;1013014;29;710;-77
2022/03/16 00:11:50;;;;;;;;;;;;;;;15.54;63.12;102154.91;1013340;29;718;-77
2022/03/16 00:12:41;;;;;;;;;;;;;;;15.53;63.09;102152.31;1012943;29;666;-77
2022/03/16 00:13:31;;;;;;;;;;;;;;;15.54;62.45;102152.22;1012658;29;711;-75
2022/03/16 00:14:21;;;;;;;;;;;;;;;15.52;62.79;102154.13;1013456;29;659;-74
2022/03/16 00:15:12;;;;;;;;;;;;;;;15.52;62.50;102151.44;1013247;29;682;-75
2022/03/16 00:16:02;;;;;;;;;;;;;;;15.51;62.98;102141.66;1012901;29;652;-77
2022/03/16 00:16:53;;;;;;;;;;;;;;;15.51;62.71;102146.16;1012719;29;1655;-77
2022/03/16 00:17:43;;;;;;;;;;;;;;;15.51;62.49;102156.91;1012877;29;703;-76
2022/03/16 00:18:34;;;;;;;;;;;;;;;15.50;62.58;102152.50;1012945;29;707;-76
2022/03/16 00:19:24;;;;;;;;;;;;;;;15.48;62.98;102155.28;1012668;29;643;-75
2022/03/16 00:20:14;;;;;;;;;;;;;;;15.50;62.36;102152.50;1012854;29;668;-78
2022/03/16 00:21:05;;;;;;;;;;;;;;;15.49;62.36;102148.94;1012965;29;648;-74
2022/03/16 00:21:55;;;;;;;;;;;;;;;15.50;62.52;102155.19;1013411;29;758;-79
2022/03/16 00:22:46;;;;;;;;;;;;;;;15.49;62.90;102153.47;1012938;29;749;-79
2022/03/16 00:23:36;;;;;;;;;;;;;;;15.47;62.71;102150.88;1012715;29;711;-80
2022/03/16 00:24:26;;;;;;;;;;;;;;;15.48;62.74;102149.06;1012726;29;1910;-77
2022/03/16 00:25:17;;;;;;;;;;;;;;;15.48;62.69;102152.59;1012980;29;682;-76
2022/03/16 00:26:07;;;;;;;;;;;;;;;15.48;62.52;102152.59;1012577;29;1574;-77
2022/03/16 00:26:58;;;;;;;;;;;;;;;15.48;62.33;102149.06;1012751;29;722;-76
2022/03/16 00:27:48;;;;;;;;;;;;;;;15.47;62.40;102150.00;1012316;29;1652;-77
2022/03/16 00:28:38;;;;;;;;;;;;;;;15.48;62.89;102157.09;1009206;29;699;-77
2022/03/16 00:29:29;;;;;;;;;;;;;;;15.46;62.66;102151.84;1008489;29;617;-76
2022/03/16 00:30:19;;;;;;;;;;;;;;;15.47;62.80;102153.56;1009079;29;648;-75
2022/03/16 00:31:10;;;;;;;;;;;;;;;15.46;62.77;102154.53;1009066;29;727;-75
2022/03/16 00:32:00;;;;;;;;;;;;;;;15.45;62.43;102150.09;1009402;29;660;-76
2022/03/16 00:32:51;;;;;;;;;;;;;;;15.46;62.34;102153.66;1008978;29;715;-76
2022/03/16 00:33:41;;;;;;;;;;;;;;;15.45;62.65;102158.16;1009103;29;723;-76
2022/03/16 00:34:31;;;;;;;;;;;;;;;15.46;62.36;102156.34;1009135;29;687;-76
2022/03/16 00:35:22;;;;;;;;;;;;;;;15.47;62.39;102158.94;1009144;29;719;-75
2022/03/16 00:36:12;;;;;;;;;;;;;;;15.45;62.43;102154.63;1009128;29;710;-76
2022/03/16 00:37:03;;;;;;;;;;;;;;;15.43;62.52;102157.41;1009289;29;652;-76
2022/03/16 00:37:53;;;;;;;;;;;;;;;15.42;62.17;102150.28;1008839;29;660;-76
2022/03/16 00:38:43;;;;;;;;;;;;;;;15.43;62.56;102156.53;1009170;29;691;-75
2022/03/16 00:39:34;;;;;;;;;;;;;;;15.43;62.30;102153.84;1008779;29;648;-76
2022/03/16 00:40:24;;;;;;;;;;;;;;;15.42;62.67;102150.28;1009384;29;635;-79
2022/03/16 00:41:15;;;;;;;;;;;;;;;15.42;61.97;102152.97;1008599;29;660;-79
2022/03/16 00:42:05;;;;;;;;;;;;;;;15.42;62.44;102150.28;1009387;29;748;-79
2022/03/16 00:42:56;;;;;;;;;;;;;;;15.42;62.64;102150.28;1009496;29;652;-79
2022/03/16 00:43:46;;;;;;;;;;;;;;;15.42;62.89;102152.97;1009376;29;946;-79
2022/03/16 00:44:36;;;;;;;;;;;;;;;15.41;62.65;102153.94;1009329;29;1895;-77
2022/03/16 00:45:27;;;;;;;;;;;;;;;15.40;62.23;102154.94;1009006;29;664;-79
2022/03/16 00:46:17;;;;;;;;;;;;;;;15.41;62.10;102143.19;1009478;29;663;-78
2022/03/16 00:47:08;;;;;;;;;;;;;;;15.40;62.23;102159.44;1009996;29;660;-80
2022/03/16 00:47:58;;;;;;;;;;;;;;;15.41;62.45;102156.63;1010530;29;711;-80
2022/03/16 00:48:48;;;;;;;;;;;;;;;15.41;62.54;102158.44;1009915;29;663;-80
2022/03/16 00:49:39;;;;;;;;;;;;;;;15.40;62.39;102163.00;1010516;29;663;-80
2022/03/16 00:50:29;;;;;;;;;;;;;;;15.39;62.61;102158.59;1010527;29;872;-80
2022/03/16 00:51:20;;;;;;;;;;;;;;;15.39;62.45;102157.72;1010359;29;599;-81
2022/03/16 00:52:10;;;;;;;;;;;;;;;15.40;62.63;102154.06;1010667;29;632;-90
2022/03/16 00:53:01;;;;;;;;;;;;;;;15.38;62.50;102147.94;1010617;29;690;-89
2022/03/16 00:53:51;;;;;;;;;;;;;;;15.39;62.31;102153.22;1010735;29;699;-89
2022/03/16 00:54:41;;;;;;;;;;;;;;;15.38;61.94;102151.47;1010052;29;632;-89
2022/03/16 00:55:32;;;;;;;;;;;;;;;15.37;62.42;102149.75;1010159;29;683;-89
2022/03/16 00:56:22;;;;;;;;;;;;;;;15.36;62.10;102142.66;1009840;29;686;-89
2022/03/16 00:57:13;;;;;;;;;;;;;;;15.35;62.19;102146.31;1009075;29;742;-88
2022/03/16 00:58:03;;;;;;;;;;;;;;;15.35;62.05;102146.31;1010069;29;719;-87
2022/03/16 00:58:53;;;;;;;;;;;;;;;15.36;62.28;102150.72;1010629;29;710;-90
2022/03/16 00:59:44;;;;;;;;;;;;;;;15.36;61.63;102145.34;1009621;29;707;-80
2022/03/16 01:00:34;;;;;;;;;;;;;;;15.35;62.23;102143.63;1009569;29;652;-79
2022/03/16 01:01:25;;;;;;;;;;;;;;;15.35;61.80;102140.94;1009358;29;664;-81
2022/03/16 01:02:15;;;;;;;;;;;;;;;15.34;62.01;102139.19;1010431;29;632;-77
2022/03/16 01:03:05;;;;;;;;;;;;;;;15.33;62.06;102137.47;1009529;29;675;-80
2022/03/16 01:03:56;;;;;;;;;;;;;;;15.33;62.00;102137.47;1009589;29;730;-76
2022/03/16 01:04:47;;;;;;;;;;;;;;;15.33;62.15;102145.53;1008805;29;1895;-76
2022/03/16 01:05:37;;;;;;;;;;;;;;;15.33;61.70;102141.97;1011920;29;1173;-77
2022/03/16 01:06:27;;;;;;;;;;;;;;;15.34;62.19;102149.09;1012444;29;1307;-80
2022/03/16 01:07:18;;;;;;;;;;;;;;;15.33;62.43;102152.72;1011883;29;1150;-77
2022/03/16 01:08:08;;;;;;;;;;;;;;;15.32;62.33;102151.88;1011233;29;1085;-79
2022/03/16 01:08:59;;;;;;;;;;;;;;;15.30;62.40;102151.09;1011983;29;1172;-80
2022/03/16 01:09:49;;;;;;;;;;;;;;;15.31;61.99;102149.28;1011524;29;1099;-80
2022/03/16 01:10:39;;;;;;;;;;;;;;;15.32;62.29;102143.81;1012773;29;1111;-80
2022/03/16 01:11:30;;;;;;;;;;;;;;;15.31;62.23;102146.59;1011752;29;1098;-80
2022/03/16 01:12:20;;;;;;;;;;;;;;;15.30;61.94;102145.72;1012643;29;1098;-76
2022/03/16 01:13:11;;;;;;;;;;;;;;;15.31;61.90;102150.13;1011920;29;1130;-78
2022/03/16 01:14:01;;;;;;;;;;;;;;;15.29;61.63;102146.69;1011194;29;1131;-77
2022/03/16 01:14:51;;;;;;;;;;;;;;;15.30;61.55;102148.41;1012009;29;1156;-77
2022/03/16 01:15:42;;;;;;;;;;;;;;;15.29;61.59;102150.22;1013416;29;1149;-77
2022/03/16 01:16:35;;;;;;;;;;;;;;;15.29;62.33;102146.69;1011043;29;1106;-78
2022/03/16 01:17:25;;;;;;;;;;;;;;;15.29;61.88;102146.69;1013006;29;1121;-78
2022/03/16 01:18:16;;;;;;;;;;;;;;;15.29;62.23;102152.06;1012226;29;1145;-78
2022/03/16 01:19:06;;;;;;;;;;;;;;;15.28;62.17;102147.63;1013095;29;1082;-79
2022/03/16 01:19:56;;;;;;;;;;;;;;;15.28;61.50;102147.63;1012671;29;1172;-85
2022/03/16 01:20:47;;;;;;;;;;;;;;;15.28;62.05;102144.97;1013625;29;1196;-79
2022/03/16 01:21:37;;;;;;;;;;;;;;;15.27;61.64;102141.41;1013667;29;659;-80
2022/03/16 01:22:28;;;;;;;;;;;;;;;15.27;62.14;102152.16;1013726;29;722;-78
2022/03/16 01:23:18;;;;;;;;;;;;;;;15.27;61.64;102137.84;1013694;29;636;-83
2022/03/16 01:24:08;;;;;;;;;;;;;;;15.28;62.08;102142.28;1013688;29;683;-84
2022/03/16 01:24:59;;;;;;;;;;;;;;;15.28;62.06;102139.59;1013745;29;714;-82
2022/03/16 01:25:49;;;;;;;;;;;;;;;15.28;61.97;102144.97;1009907;29;670;-83
2022/03/16 01:26:40;;;;;;;;;;;;;;;15.26;62.15;102142.38;1010306;29;714;-83
2022/03/16 01:27:30;;;;;;;;;;;;;;;15.26;61.58;102137.00;1010400;29;842;-86
2022/03/16 01:28:20;;;;;;;;;;;;;;;15.26;62.36;102136.13;1009851;29;764;-81
2022/03/16 01:29:11;;;;;;;;;;;;;;;15.27;61.65;102138.72;1010372;29;663;-83
2022/03/16 01:30:01;;;;;;;;;;;;;;;15.28;62.35;102139.59;1009858;29;691;-82
2022/03/16 01:30:52;;;;;;;;;;;;;;;15.28;61.92;102134.22;1010308;29;648;-81
2022/03/16 01:31:42;;;;;;;;;;;;;;;15.26;62.14;102141.50;1009749;29;647;-82
2022/03/16 01:32:33;;;;;;;;;;;;;;;15.27;62.01;102132.50;1010173;29;639;-83
2022/03/16 01:33:23;;;;;;;;;;;;;;;15.27;62.65;102132.50;1010394;29;579;-81
2022/03/16 01:34:13;;;;;;;;;;;;;;;15.26;62.02;102136.13;1010357;29;647;-80
2022/03/16 01:35:04;;;;;;;;;;;;;;;15.25;62.23;102140.63;1009825;29;710;-82
2022/03/16 01:35:54;;;;;;;;;;;;;;;15.25;62.81;102132.59;1014060;29;1512;-81
2022/03/16 01:36:45;;;;;;;;;;;;;;;15.24;62.29;102130.84;1013068;29;683;-82
2022/03/16 01:37:35;;;;;;;;;;;;;;;15.25;61.98;102137.94;1013055;29;643;-82
2022/03/16 01:38:25;;;;;;;;;;;;;;;15.25;62.39;102137.09;1013152;29;620;-82
2022/03/16 01:39:16;;;;;;;;;;;;;;;15.25;62.20;102134.41;1012695;29;656;-81
2022/03/16 01:40:06;;;;;;;;;;;;;;;15.22;62.30;102132.81;1013065;29;674;-81
2022/03/16 01:40:57;;;;;;;;;;;;;;;15.24;62.29;102138.03;1013063;29;648;-81
2022/03/16 01:41:47;;;;;;;;;;;;;;;15.24;62.64;102130.84;1013053;29;640;-87
2022/03/16 01:42:38;;;;;;;;;;;;;;;15.24;62.65;102132.69;1013167;29;679;-89
2022/03/16 01:43:28;;;;;;;;;;;;;;;15.24;62.53;102128.16;1013107;29;632;-89
2022/03/16 01:44:18;;;;;;;;;;;;;;;15.24;62.03;102138.03;1013176;29;652;-88
2022/03/16 01:45:09;;;;;;;;;;;;;;;15.22;62.11;102135.50;1012667;29;1600;-91
2022/03/16 01:45:59;;;;;;;;;;;;;;;15.23;62.67;102134.50;1012986;29;642;-87
2022/03/16 01:46:50;;;;;;;;;;;;;;;15.22;62.45;102132.81;1012205;29;733;-79
2022/03/16 01:47:40;;;;;;;;;;;;;;;15.22;62.28;102134.63;1012571;29;644;-88
2022/03/16 01:48:30;;;;;;;;;;;;;;;15.22;62.46;102140.00;1012382;29;1326;-89
2022/03/16 01:49:21;;;;;;;;;;;;;;;15.23;62.32;102141.69;1013287;29;1066;-89
2022/03/16 01:50:11;;;;;;;;;;;;;;;15.22;62.34;102143.53;1012738;29;1204;-90
2022/03/16 01:51:02;;;;;;;;;;;;;;;15.23;62.02;102147.06;1011870;29;1224;-86
2022/03/16 01:51:52;;;;;;;;;;;;;;;15.23;62.25;102139.88;1012301;29;1090;-88
2022/03/16 01:52:42;;;;;;;;;;;;;;;15.22;62.30;102140.00;1012910;29;1335;-87
2022/03/16 01:53:33;;;;;;;;;;;;;;;15.21;62.50;102140.97;1011159;29;1171;-88
2022/03/16 01:54:23;;;;;;;;;;;;;;;15.21;62.21;102139.13;1009237;29;682;-91
2022/03/16 01:55:14;;;;;;;;;;;;;;;15.21;62.26;102143.66;1012648;29;1186;-87
2022/03/16 01:56:04;;;;;;;;;;;;;;;15.21;62.61;102144.50;1012202;29;1233;-83
2022/03/16 01:56:54;;;;;;;;;;;;;;;15.20;62.50;102139.22;1012614;29;1166;-84
2022/03/16 01:57:45;;;;;;;;;;;;;;;15.21;62.26;102146.31;1012592;29;1201;-88
2022/03/16 01:58:35;;;;;;;;;;;;;;;15.18;62.57;102147.38;1011323;29;1163;-86
2022/03/16 01:59:26;;;;;;;;;;;;;;;15.18;62.30;102147.38;1012916;29;1186;-84
2022/03/16 02:00:17;;;;;;;;;;;;;;;15.18;62.51;102142.00;1011318;29;1194;-84
2022/03/16 02:01:07;;;;;;;;;;;;;;;15.19;62.23;102145.56;1010185;29;1238;-82
2022/03/16 02:01:58;;;;;;;;;;;;;;;15.20;62.27;102144.59;1011282;29;1167;-84
2022/03/16 02:02:48;;;;;;;;;;;;;;;15.18;62.35;102136.63;1011846;29;1365;-89
2022/03/16 02:03:38;;;;;;;;;;;;;;;15.19;62.71;102140.19;1011716;29;1218;-91
2022/03/16 02:04:29;;;;;;;;;;;;;;;15.19;62.37;102145.56;1010498;29;1891;-90
2022/03/16 02:05:19;;;;;;;;;;;;;;;15.19;62.52;102145.56;1012886;29;1186;-81
2022/03/16 02:06:10;;;;;;;;;;;;;;;15.18;61.98;102143.84;1009738;29;730;-81
2022/03/16 02:07:00;;;;;;;;;;;;;;;15.17;62.15;102147.47;1008440;29;738;-78
2022/03/16 02:07:50;;;;;;;;;;;;;;;15.17;62.65;102139.41;1008500;29;628;-77
2022/03/16 02:08:41;;;;;;;;;;;;;;;15.16;62.01;102143.94;1012259;29;651;-76
2022/03/16 02:09:31;;;;;;;;;;;;;;;15.16;62.44;102135.88;1012150;29;688;-76
2022/03/16 02:10:22;;;;;;;;;;;;;;;15.15;62.72;102139.50;1009694;29;730;-77
2022/03/16 02:11:14;;;;;;;;;;;;;;;15.16;62.15;102140.38;1009181;29;636;-80
2022/03/16 02:12:04;;;;;;;;;;;;;;;15.17;62.13;102142.09;1009092;29;706;-78
2022/03/16 02:12:56;;;;;;;;;;;;;;;15.17;62.37;102152.84;1009056;29;1570;-79
2022/03/16 02:13:46;;;;;;;;;;;;;;;15.16;62.03;102148.44;1009639;29;694;-79
2022/03/16 02:14:36;;;;;;;;;;;;;;;15.16;61.91;102149.28;1009105;29;652;-78
2022/03/16 02:15:27;;;;;;;;;;;;;;;15.17;62.21;102150.16;1009186;29;644;-79
2022/03/16 02:16:18;;;;;;;;;;;;;;;15.16;62.54;102146.59;1008551;29;667;-77
2022/03/16 02:17:09;;;;;;;;;;;;;;;15.14;62.21;102142.28;1008625;29;664;-77
2022/03/16 02:17:59;;;;;;;;;;;;;;;15.14;62.55;102140.47;1009131;29;637;-77
2022/03/16 02:18:50;;;;;;;;;;;;;;;15.12;62.20;102142.38;1009117;29;674;-76
2022/03/16 02:19:40;;;;;;;;;;;;;;;15.13;62.28;102136.06;1010106;29;690;-77
2022/03/16 02:20:32;;;;;;;;;;;;;;;15.13;62.26;102137.88;1009887;29;1094;-77
2022/03/16 02:21:22;;;;;;;;;;;;;;;15.12;62.17;102130.78;1010249;29;643;-78
2022/03/16 02:22:13;;;;;;;;;;;;;;;15.12;62.17;102128.97;1010050;29;663;-76
2022/03/16 02:23:05;;;;;;;;;;;;;;;15.11;62.36;102127.22;1009108;29;658;-78
2022/03/16 02:23:55;;;;;;;;;;;;;;;15.13;62.42;102135.19;1008627;29;663;-77
2022/03/16 02:24:45;;;;;;;;;;;;;;;15.11;62.05;102129.06;1010465;29;1911;-78
2022/03/16 02:25:36;;;;;;;;;;;;;;;15.11;62.35;102127.22;1009772;29;675;-77
2022/03/16 02:26:26;;;;;;;;;;;;;;;15.11;62.14;102126.38;1009836;29;648;-78
2022/03/16 02:27:17;;;;;;;;;;;;;;;15.09;62.31;102134.53;1010151;29;674;-79
2022/03/16 02:28:07;;;;;;;;;;;;;;;15.11;62.04;102129.06;1009582;29;686;-81
2022/03/16 02:28:58;;;;;;;;;;;;;;;15.09;62.28;102134.53;1010132;29;671;-79
2022/03/16 02:29:48;;;;;;;;;;;;;;;15.09;62.24;102128.28;1009691;29;738;-82
2022/03/16 02:30:39;;;;;;;;;;;;;;;15.10;61.90;102135.38;1010078;29;672;-81
2022/03/16 02:31:29;;;;;;;;;;;;;;;15.09;62.08;102139.03;1009830;29;711;-81
2022/03/16 02:32:20;;;;;;;;;;;;;;;15.08;61.94;102135.47;1008815;29;683;-81
2022/03/16 02:33:10;;;;;;;;;;;;;;;15.09;61.93;102134.53;1010179;29;633;-79
2022/03/16 02:34:00;;;;;;;;;;;;;;;15.09;62.37;102136.34;1013437;29;683;-80
2022/03/16 02:34:51;;;;;;;;;;;;;;;15.08;62.33;102135.47;1012407;29;639;-86
2022/03/16 02:35:41;;;;;;;;;;;;;;;15.08;62.44;102134.63;1012288;29;1535;-82
2022/03/16 02:36:32;;;;;;;;;;;;;;;15.08;62.25;102134.63;1012954;29;673;-79
2022/03/16 02:37:22;;;;;;;;;;;;;;;15.09;62.15;102136.34;1010446;29;1480;-79
2022/03/16 02:38:13;;;;;;;;;;;;;;;15.08;61.93;102131.94;1008947;29;691;-79
2022/03/16 02:39:03;;;;;;;;;;;;;;;15.06;61.75;102128.47;1008563;29;655;-80
2022/03/16 02:39:54;;;;;;;;;;;;;;;15.06;61.65;102132.03;1008419;29;814;-82
2022/03/16 02:40:45;;;;;;;;;;;;;;;15.06;61.84;102132.03;1008640;29;746;-85
2022/03/16 02:41:36;;;;;;;;;;;;;;;15.05;61.95;102122.25;1008984;29;640;-80
2022/03/16 02:42:26;;;;;;;;;;;;;;;15.06;62.31;102123.09;1008663;29;719;-82
2022/03/16 02:43:16;;;;;;;;;;;;;;;15.05;61.71;102119.56;1008861;29;612;-80
2022/03/16 02:44:07;;;;;;;;;;;;;;;15.05;61.70;102116.88;1009533;29;1580;-82
2022/03/16 02:44:57;;;;;;;;;;;;;;;15.05;61.77;102113.34;1012102;29;1895;-81
2022/03/16 02:45:48;;;;;;;;;;;;;;;15.05;61.89;102121.41;1012299;29;648;-82
2022/03/16 02:46:38;;;;;;;;;;;;;;;15.04;62.00;102119.69;1012460;29;723;-82
2022/03/16 02:47:28;;;;;;;;;;;;;;;15.03;61.91;102112.59;1012332;29;639;-83
2022/03/16 02:48:19;;;;;;;;;;;;;;;15.03;62.21;102112.59;1012569;29;1110;-83
2022/03/16 02:49:09;;;;;;;;;;;;;;;15.03;62.27;102110.78;1012566;29;620;-83
2022/03/16 02:50:00;;;;;;;;;;;;;;;15.02;61.96;102110.88;1012588;29;785;-83
2022/03/16 02:50:50;;;;;;;;;;;;;;;15.03;61.79;102112.59;1012315;29;664;-82
2022/03/16 02:51:41;;;;;;;;;;;;;;;15.01;62.06;102109.13;1011901;29;687;-83
2022/03/16 02:52:31;;;;;;;;;;;;;;;15.02;62.09;102105.50;1011985;29;1542;-82
2022/03/16 02:53:22;;;;;;;;;;;;;;;15.02;61.67;102110.88;1012569;29;659;-83
2022/03/16 02:54:12;;;;;;;;;;;;;;;15.02;61.70;102105.50;1012123;29;699;-82
2022/03/16 02:55:02;;;;;;;;;;;;;;;15.01;62.10;102103.75;1012324;29;682;-81
2022/03/16 02:55:53;;;;;;;;;;;;;;;15.01;62.17;102098.41;1012513;29;659;-81
2022/03/16 02:56:46;;;;;;;;;;;;;;;15.00;62.16;102099.34;1011955;29;640;-81
2022/03/16 02:57:36;;;;;;;;;;;;;;;14.99;61.90;102095.81;1012194;29;624;-84
2022/03/16 02:58:27;;;;;;;;;;;;;;;14.99;61.68;102092.25;1012280;29;693;-84
2022/03/16 02:59:17;;;;;;;;;;;;;;;14.99;61.81;102095.81;1012409;29;732;-84
2022/03/16 03:00:07;;;;;;;;;;;;;;;14.99;61.38;102100.31;1012223;29;687;-83
2022/03/16 03:00:58;;;;;;;;;;;;;;;14.99;61.59;102094.94;1012313;29;678;-84
2022/03/16 03:01:48;;;;;;;;;;;;;;;14.99;62.23;102092.25;1012106;29;706;-81
2022/03/16 03:02:41;;;;;;;;;;;;;;;14.98;61.78;102094.09;1012325;29;730;-81
2022/03/16 03:03:31;;;;;;;;;;;;;;;14.98;61.79;102087.84;1012395;29;726;-80
2022/03/16 03:04:21;;;;;;;;;;;;;;;14.98;61.75;102091.41;1008893;29;686;-78
2022/03/16 03:05:12;;;;;;;;;;;;;;;14.98;61.67;102093.22;1008854;29;945;-77
2022/03/16 03:06:02;;;;;;;;;;;;;;;14.97;61.75;102086.13;1008433;29;702;-77
2022/03/16 03:06:53;;;;;;;;;;;;;;;14.98;61.68;102088.72;1008757;29;1357;-76
2022/03/16 03:07:43;;;;;;;;;;;;;;;14.98;61.82;102087.84;1009048;29;651;-76
2022/03/16 03:08:33;;;;;;;;;;;;;;;14.94;62.00;102096.09;1015857;29;637;-78
2022/03/16 03:09:24;;;;;;;;;;;;;;;14.94;61.80;102093.41;1015996;29;670;-78
2022/03/16 03:10:14;;;;;;;;;;;;;;;14.97;61.64;102096.88;1008546;29;691;-78
2022/03/16 03:11:05;;;;;;;;;;;;;;;14.94;61.24;102093.41;1008462;29;663;-77
2022/03/16 03:11:59;;;;;;;;;;;;;;;14.96;61.92;102095.13;1008814;29;678;-77
2022/03/16 03:12:49;;;;;;;;;;;;;;;14.96;61.45;102092.44;1008584;29;710;-77
2022/03/16 03:13:40;;;;;;;;;;;;;;;14.94;61.71;102089.84;1008593;29;695;-76
2022/03/16 03:14:30;;;;;;;;;;;;;;;14.93;61.88;102091.69;1008497;29;671;-76
2022/03/16 03:15:20;;;;;;;;;;;;;;;14.93;61.35;102094.38;1008534;29;620;-78
2022/03/16 03:16:11;;;;;;;;;;;;;;;14.92;61.63;102089.97;1008655;29;706;-78
2022/03/16 03:17:01;;;;;;;;;;;;;;;14.92;60.99;102095.31;1008546;29;639;-77
2022/03/16 03:17:52;;;;;;;;;;;;;;;14.91;61.80;102096.28;1008631;29;679;-77
2022/03/16 03:18:42;;;;;;;;;;;;;;;14.92;61.97;102094.47;1008246;29;678;-76
2022/03/16 03:19:33;;;;;;;;;;;;;;;14.92;61.62;102100.69;1008928;29;667;-76
2022/03/16 03:20:23;;;;;;;;;;;;;;;14.91;61.44;102100.78;1008706;29;644;-76
2022/03/16 03:21:13;;;;;;;;;;;;;;;14.90;61.59;102097.22;1008597;29;644;-76
2022/03/16 03:22:07;;;;;;;;;;;;;;;14.91;61.67;102098.09;1008485;29;765;-77
2022/03/16 03:22:58;;;;;;;;;;;;;;;14.91;61.79;102092.72;1008271;29;616;-77
2022/03/16 03:23:48;;;;;;;;;;;;;;;14.89;61.81;102100.88;1010949;29;1579;-77
2022/03/16 03:24:40;;;;;;;;;;;;;;;14.90;61.32;102102.59;1012097;29;1914;-77
2022/03/16 03:25:30;;;;;;;;;;;;;;;14.89;61.72;102098.19;1012104;29;679;-77
2022/03/16 03:26:21;;;;;;;;;;;;;;;14.90;61.72;102099.06;1012325;29;655;-78
2022/03/16 03:27:11;;;;;;;;;;;;;;;14.90;61.25;102097.22;1012304;29;664;-78
2022/03/16 03:28:01;;;;;;;;;;;;;;;14.89;61.23;102095.50;1012123;29;639;-78
2022/03/16 03:28:52;;;;;;;;;;;;;;;14.91;61.92;102098.97;1012171;29;665;-77
2022/03/16 03:29:42;;;;;;;;;;;;;;;14.89;61.58;102106.25;1012053;29;753;-77
2022/03/16 03:30:33;;;;;;;;;;;;;;;14.89;61.68;102100.88;1012237;29;651;-78
2022/03/16 03:31:23;;;;;;;;;;;;;;;14.88;61.67;102092.91;1012009;29;683;-79
2022/03/16 03:32:14;;;;;;;;;;;;;;;14.88;61.37;102092.91;1012156;29;639;-78
2022/03/16 03:33:04;;;;;;;;;;;;;;;14.86;61.57;102098.41;1012242;29;639;-78
2022/03/16 03:33:55;;;;;;;;;;;;;;;14.87;61.40;102093.88;1012133;29;702;-83
2022/03/16 03:34:47;;;;;;;;;;;;;;;14.86;61.93;102101.09;1012293;29;694;-81
2022/03/16 03:35:38;;;;;;;;;;;;;;;14.87;61.96;102104.63;1012318;29;729;-81
2022/03/16 03:36:29;;;;;;;;;;;;;;;14.86;62.06;102094.88;1012041;29;714;-80
2022/03/16 03:37:20;;;;;;;;;;;;;;;14.86;61.57;102095.72;1012135;29;690;-79
2022/03/16 03:38:11;;;;;;;;;;;;;;;14.84;62.27;102097.66;1012465;29;644;-81
2022/03/16 03:39:01;;;;;;;;;;;;;;;14.86;61.61;102097.56;1012452;29;692;-81
2022/03/16 03:39:52;;;;;;;;;;;;;;;14.85;61.13;102101.19;1012161;29;707;-82
2022/03/16 03:40:42;;;;;;;;;;;;;;;14.85;61.38;102094.00;1012625;29;658;-81
2022/03/16 03:41:33;;;;;;;;;;;;;;;14.86;61.61;102100.22;1013038;29;672;-81
2022/03/16 03:42:23;;;;;;;;;;;;;;;14.86;61.76;102090.38;1012816;29;666;-81
2022/03/16 03:43:14;;;;;;;;;;;;;;;14.84;61.81;102094.97;1012718;29;1573;-81
2022/03/16 03:44:04;;;;;;;;;;;;;;;14.83;61.28;102095.91;1012858;29;1415;-81
2022/03/16 03:44:54;;;;;;;;;;;;;;;14.83;61.48;102103.97;1012885;29;2300;-81
2022/03/16 03:45:45;;;;;;;;;;;;;;;14.83;61.82;102103.97;1013028;29;640;-82
2022/03/16 03:46:35;;;;;;;;;;;;;;;14.82;61.67;102094.19;1012812;29;672;-82
2022/03/16 03:47:26;;;;;;;;;;;;;;;14.82;61.66;102098.69;1013217;29;670;-78
2022/03/16 03:48:16;;;;;;;;;;;;;;;14.81;61.68;102096.97;1013252;29;661;-78
2022/03/16 03:49:06;;;;;;;;;;;;;;;14.81;61.52;102096.97;1012899;29;638;-78
2022/03/16 03:49:57;;;;;;;;;;;;;;;14.80;61.47;102095.25;1012486;29;656;-78
2022/03/16 03:50:47;;;;;;;;;;;;;;;14.81;61.40;102096.97;1012906;29;706;-77
2022/03/16 03:51:38;;;;;;;;;;;;;;;14.80;61.50;102096.09;1013004;29;640;-77
2022/03/16 03:52:28;;;;;;;;;;;;;;;14.79;62.17;102097.06;1013142;29;694;-77
2022/03/16 03:53:19;;;;;;;;;;;;;;;14.80;61.59;102095.25;1012914;29;657;-77
2022/03/16 03:54:09;;;;;;;;;;;;;;;14.80;61.66;102085.38;1012948;29;655;-76
2022/03/16 03:54:59;;;;;;;;;;;;;;;14.79;61.42;102089.00;1012874;29;661;-77
2022/03/16 03:55:50;;;;;;;;;;;;;;;14.78;61.54;102097.16;1013147;29;647;-78
2022/03/16 03:56:40;;;;;;;;;;;;;;;14.78;61.69;102086.41;1013230;29;659;-78
2022/03/16 03:57:31;;;;;;;;;;;;;;;14.78;61.69;102087.28;1013114;29;604;-79
2022/03/16 03:58:21;;;;;;;;;;;;;;;14.77;61.85;102080.19;1013080;29;671;-78
2022/03/16 03:59:11;;;;;;;;;;;;;;;14.77;61.96;102080.19;1012895;29;699;-78
2022/03/16 04:00:02;;;;;;;;;;;;;;;14.77;61.17;102085.56;1012969;29;686;-78
2022/03/16 04:00:53;;;;;;;;;;;;;;;14.77;61.63;102085.56;1010112;29;1342;-78
2022/03/16 04:01:43;;;;;;;;;;;;;;;14.77;61.71;102082.00;1008817;29;655;-78
2022/03/16 04:02:33;;;;;;;;;;;;;;;14.77;61.28;102090.94;1008985;29;663;-78
2022/03/16 04:03:24;;;;;;;;;;;;;;;14.76;61.46;102083.84;1009140;29;687;-78
2022/03/16 04:04:14;;;;;;;;;;;;;;;14.76;61.64;102091.88;1009108;29;769;-78
2022/03/16 04:05:05;;;;;;;;;;;;;;;14.74;61.42;102083.06;1009080;29;639;-78
2022/03/16 04:05:55;;;;;;;;;;;;;;;14.76;61.03;102082.97;1009473;29;734;-78
2022/03/16 04:06:46;;;;;;;;;;;;;;;14.76;61.51;102082.97;1008782;29;1206;-78
2022/03/16 04:07:36;;;;;;;;;;;;;;;14.76;60.91;102094.56;1009171;29;679;-78
2022/03/16 04:08:26;;;;;;;;;;;;;;;14.76;61.14;102080.28;1009467;29;619;-78
2022/03/16 04:09:17;;;;;;;;;;;;;;;14.75;61.75;102081.25;1009525;29;694;-78
2022/03/16 04:10:07;;;;;;;;;;;;;;;14.74;61.41;102082.19;1009500;29;636;-77
2022/03/16 04:10:58;;;;;;;;;;;;;;;14.74;61.07;102084.88;1009511;29;660;-77
2022/03/16 04:11:48;;;;;;;;;;;;;;;14.74;61.16;102080.38;1009638;29;711;-77
2022/03/16 04:12:39;;;;;;;;;;;;;;;14.73;61.43;102080.47;1016374;29;663;-77
2022/03/16 04:13:29;;;;;;;;;;;;;;;14.72;61.38;102079.59;1016529;29;671;-78
2022/03/16 04:14:19;;;;;;;;;;;;;;;14.73;61.26;102075.97;1009702;29;666;-78
2022/03/16 04:15:10;;;;;;;;;;;;;;;14.73;61.53;102078.66;1009960;29;686;-78
2022/03/16 04:16:00;;;;;;;;;;;;;;;14.71;60.95;102075.19;1009118;29;683;-78
2022/03/16 04:16:51;;;;;;;;;;;;;;;14.72;61.37;102076.94;1010037;29;667;-78
2022/03/16 04:17:41;;;;;;;;;;;;;;;14.72;60.75;102074.25;1009988;29;612;-78
2022/03/16 04:18:31;;;;;;;;;;;;;;;14.71;61.20;102080.56;1008408;29;872;-78
2022/03/16 04:19:22;;;;;;;;;;;;;;;14.71;60.89;102080.56;1009015;29;711;-78
2022/03/16 04:20:12;;;;;;;;;;;;;;;14.71;61.02;102085.06;1009297;29;1519;-78
2022/03/16 04:21:03;;;;;;;;;;;;;;;14.71;61.34;102080.56;1009141;29;699;-78
2022/03/16 04:21:53;;;;;;;;;;;;;;;14.71;60.87;102079.69;1009130;29;682;-77
2022/03/16 04:22:44;;;;;;;;;;;;;;;14.71;61.06;102077.03;1008987;29;687;-80
2022/03/16 04:23:34;;;;;;;;;;;;;;;14.70;61.13;102078.84;1009222;29;715;-80
2022/03/16 04:24:24;;;;;;;;;;;;;;;14.70;60.89;102078.84;1009131;29;628;-80
2022/03/16 04:25:15;;;;;;;;;;;;;;;14.70;60.88;102078.84;1008685;29;739;-81